Time;durP1;ratioP1;P1;durP2;ratioP2;P2;SDS_P1;SDS_P2;PMS_P1;PMS_P2;Temp;Humidity;BMP_temperature;BMP_pressure;BME280_temperature;BME280_humidity;BME280_pressure;Samples;Min_cycle;Max_cycle;Signal;HPM_P1;HPM_P2
2023/12/30 00:00:43;;;;;;;4.80;1.50;;;7.30;99.90;;;;;;4978892;28;20508;-63
2023/12/30 00:03:11;;;;;;;3.67;1.10;;;7.30;99.90;;;;;;4980516;28;20984;-63
2023/12/30 00:05:39;;;;;;;3.00;1.03;;;7.30;99.90;;;;;;4979913;28;20477;-63
2023/12/30 00:08:08;;;;;;;2.60;1.13;;;7.30;99.90;;;;;;4968970;28;20496;-63
2023/12/30 00:10:36;;;;;;;2.40;1.10;;;7.30;99.90;;;;;;4979941;28;20560;-63
2023/12/30 00:13:04;;;;;;;3.77;1.33;;;7.30;99.90;;;;;;4980594;28;20497;-63
2023/12/30 00:15:33;;;;;;;1.73;1.10;;;7.30;99.90;;;;;;4979994;28;20469;-63
2023/12/30 00:18:01;;;;;;;3.47;1.87;;;7.20;99.90;;;;;;4979308;28;20934;-63
2023/12/30 00:20:29;;;;;;;3.20;1.30;;;7.20;99.90;;;;;;4980506;28;20504;-63
2023/12/30 00:22:57;;;;;;;4.27;1.20;;;7.20;99.90;;;;;;4980632;28;20928;-62
2023/12/30 00:25:27;;;;;;;2.07;1.20;;;7.20;99.90;;;;;;4977993;28;20484;-63
2023/12/30 00:27:55;;;;;;;3.07;1.30;;;7.20;99.90;;;;;;4980431;28;20509;-63
2023/12/30 00:30:24;;;;;;;4.43;1.87;;;7.20;99.90;;;;;;4978866;28;20475;-63
2023/12/30 00:32:52;;;;;;;2.10;1.23;;;7.20;99.90;;;;;;4982174;28;20480;-63
2023/12/30 00:35:21;;;;;;;2.37;1.30;;;7.20;99.90;;;;;;4978107;28;20655;-63
2023/12/30 00:37:49;;;;;;;1.70;1.33;;;7.10;99.90;;;;;;4978858;28;20493;-63
2023/12/30 00:40:17;;;;;;;2.83;1.40;;;7.10;99.90;;;;;;4979040;28;20525;-63
2023/12/30 00:42:55;;;;;;;1.90;1.37;;;7.10;99.90;;;;;;4980564;28;20488;-63
2023/12/30 00:45:23;;;;;;;3.60;1.30;;;7.10;99.90;;;;;;4979966;28;20513;-63
2023/12/30 00:47:52;;;;;;;2.73;1.20;;;7.10;99.90;;;;;;4978697;28;20496;-62
2023/12/30 00:50:20;;;;;;;4.47;1.63;;;7.10;99.90;;;;;;4980859;28;20477;-63
2023/12/30 00:52:48;;;;;;;3.77;1.63;;;7.00;99.90;;;;;;4980119;28;20464;-63
2023/12/30 00:55:16;;;;;;;2.57;1.50;;;7.00;99.90;;;;;;4979740;28;20466;-65
2023/12/30 00:57:44;;;;;;;2.87;1.43;;;7.00;99.90;;;;;;4979151;28;20498;-63
2023/12/30 01:00:15;;;;;;;4.23;1.23;;;7.00;99.90;;;;;;4978614;28;20986;-65
2023/12/30 01:02:43;;;;;;;2.63;1.60;;;7.00;99.90;;;;;;4980343;28;20476;-65
2023/12/30 01:05:11;;;;;;;2.83;1.70;;;7.00;99.90;;;;;;4979363;28;20466;-65
2023/12/30 01:07:39;;;;;;;2.03;1.93;;;6.90;99.90;;;;;;4980361;28;20492;-65
2023/12/30 01:10:08;;;;;;;2.57;1.83;;;6.90;99.90;;;;;;4978189;28;20506;-65
2023/12/30 01:12:36;;;;;;;2.23;2.03;;;6.90;99.90;;;;;;4979047;28;20713;-65
2023/12/30 01:15:05;;;;;;;2.60;1.90;;;6.90;99.90;;;;;;4979182;28;20742;-65
2023/12/30 01:17:34;;;;;;;3.90;2.40;;;6.90;99.90;;;;;;4980497;28;20488;-65
2023/12/30 01:20:02;;;;;;;3.63;2.40;;;6.90;99.90;;;;;;4981851;28;20485;-65
2023/12/30 01:22:30;;;;;;;4.07;2.60;;;6.80;99.90;;;;;;4983606;28;20474;-65
2023/12/30 01:24:58;;;;;;;2.83;2.00;;;6.80;99.90;;;;;;4983094;28;20532;-65
2023/12/30 01:27:26;;;;;;;3.47;2.27;;;6.80;99.90;;;;;;4983939;28;20506;-65
2023/12/30 01:29:54;;;;;;;3.43;2.33;;;6.80;99.90;;;;;;4979459;28;21057;-65
2023/12/30 01:32:22;;;;;;;4.30;2.63;;;6.80;99.90;;;;;;4983022;28;20825;-65
2023/12/30 01:34:52;;;;;;;3.90;2.60;;;6.70;99.90;;;;;;4982190;28;20911;-65
2023/12/30 01:37:20;;;;;;;3.70;1.90;;;6.70;99.90;;;;;;4982276;28;20497;-64
2023/12/30 01:39:49;;;;;;;3.87;3.13;;;6.70;99.90;;;;;;4982206;28;20492;-65
2023/12/30 01:42:17;;;;;;;2.27;2.00;;;6.70;99.90;;;;;;4981973;28;20470;-65
2023/12/30 01:44:45;;;;;;;3.20;1.97;;;6.60;99.90;;;;;;4982965;28;20480;-65
2023/12/30 01:47:13;;;;;;;2.20;2.00;;;6.60;99.90;;;;;;4982201;28;20560;-65
2023/12/30 01:49:42;;;;;;;3.83;2.27;;;6.60;99.90;;;;;;4982355;28;20505;-65
2023/12/30 01:52:12;;;;;;;3.40;2.57;;;6.60;99.90;;;;;;4983197;28;20472;-65
2023/12/30 01:54:41;;;;;;;4.40;2.33;;;6.60;99.90;;;;;;4981752;28;20561;-64
2023/12/30 01:57:10;;;;;;;2.60;2.40;;;6.60;99.90;;;;;;4981083;28;20516;-65
2023/12/30 01:59:39;;;;;;;1.70;1.60;;;6.60;99.90;;;;;;4981046;28;21058;-65
2023/12/30 02:02:07;;;;;;;2.73;1.63;;;6.60;99.90;;;;;;4982714;28;20480;-65
2023/12/30 02:04:35;;;;;;;3.10;1.93;;;6.50;99.90;;;;;;4980791;28;20477;-65
2023/12/30 02:07:04;;;;;;;4.33;1.63;;;6.50;99.90;;;;;;4982862;28;20501;-65
2023/12/30 02:09:33;;;;;;;2.97;1.30;;;6.50;99.90;;;;;;4976839;28;20559;-65
2023/12/30 02:12:01;;;;;;;3.23;1.17;;;6.50;99.90;;;;;;4983258;28;20500;-65
2023/12/30 02:14:30;;;;;;;3.03;1.47;;;6.50;99.90;;;;;;4982328;28;20853;-65
2023/12/30 02:16:59;;;;;;;1.30;1.10;;;6.60;99.90;;;;;;4982802;28;20485;-64
2023/12/30 02:19:27;;;;;;;1.60;1.00;;;6.50;99.90;;;;;;4978684;28;20531;-64
2023/12/30 02:21:55;;;;;;;2.33;1.10;;;6.50;99.90;;;;;;4982026;28;20501;-65
2023/12/30 02:24:24;;;;;;;1.73;1.00;;;6.60;99.90;;;;;;4981536;28;20470;-65
2023/12/30 02:26:52;;;;;;;3.43;0.93;;;6.50;99.90;;;;;;4980762;28;20528;-65
2023/12/30 02:29:20;;;;;;;2.20;1.47;;;6.50;99.90;;;;;;4978981;28;20589;-65
2023/12/30 02:31:48;;;;;;;2.13;1.00;;;6.60;99.90;;;;;;4982227;28;20573;-65
2023/12/30 02:34:18;;;;;;;2.70;0.87;;;6.60;99.90;;;;;;4982224;28;20470;-65
2023/12/30 02:36:47;;;;;;;3.93;1.67;;;6.50;99.90;;;;;;4982179;28;20587;-64
2023/12/30 02:39:15;;;;;;;2.67;1.00;;;6.50;99.90;;;;;;4980985;28;21014;-65
2023/12/30 02:41:45;;;;;;;2.10;0.97;;;6.50;99.90;;;;;;4981498;28;20532;-65
2023/12/30 02:44:18;;;;;;;2.50;1.10;;;6.50;99.90;;;;;;4978741;28;20549;-65
2023/12/30 02:46:46;;;;;;;2.20;1.00;;;6.40;99.90;;;;;;4980690;28;20535;-65
2023/12/30 02:49:15;;;;;;;2.43;0.90;;;6.40;99.90;;;;;;4981486;28;20484;-65
2023/12/30 02:51:43;;;;;;;3.47;1.47;;;6.40;99.90;;;;;;4981556;28;20470;-65
2023/12/30 02:54:11;;;;;;;2.43;1.30;;;6.30;99.90;;;;;;4979379;28;20466;-65
2023/12/30 02:56:39;;;;;;;3.27;1.30;;;6.30;99.90;;;;;;4979994;28;20619;-66
2023/12/30 02:59:08;;;;;;;2.13;1.60;;;6.30;99.90;;;;;;4979919;28;20922;-65
2023/12/30 03:01:38;;;;;;;1.70;0.87;;;6.30;99.90;;;;;;4980800;28;20499;-65
2023/12/30 03:04:06;;;;;;;3.23;1.27;;;6.20;99.90;;;;;;4979022;28;20962;-65
2023/12/30 03:06:35;;;;;;;1.43;1.00;;;6.20;99.90;;;;;;4981266;28;20868;-65
2023/12/30 03:09:04;;;;;;;1.97;1.07;;;6.20;99.90;;;;;;4980518;28;20535;-65
2023/12/30 03:11:32;;;;;;;2.73;1.00;;;6.20;99.90;;;;;;4980170;28;20839;-65
2023/12/30 03:14:01;;;;;;;3.30;1.23;;;6.10;99.90;;;;;;4980781;28;21049;-65
2023/12/30 03:16:30;;;;;;;2.80;1.13;;;6.10;99.90;;;;;;4979344;28;21034;-65
2023/12/30 03:18:58;;;;;;;3.23;1.10;;;6.20;99.90;;;;;;4979647;28;20486;-65
2023/12/30 03:21:26;;;;;;;2.03;1.20;;;6.10;99.90;;;;;;4981091;28;20497;-65
2023/12/30 03:23:54;;;;;;;2.97;1.10;;;6.10;99.90;;;;;;4981476;28;20555;-65
2023/12/30 03:26:23;;;;;;;2.77;1.00;;;6.10;99.90;;;;;;4978147;28;20924;-65
2023/12/30 03:28:51;;;;;;;2.00;1.03;;;6.10;99.90;;;;;;4980600;28;20505;-65
2023/12/30 03:31:23;;;;;;;3.27;1.00;;;6.10;99.90;;;;;;4978570;28;20947;-65
2023/12/30 03:33:52;;;;;;;2.13;0.80;;;6.00;99.90;;;;;;4981696;28;20484;-65
2023/12/30 03:36:21;;;;;;;2.20;1.13;;;6.10;99.90;;;;;;4981602;28;20497;-65
2023/12/30 03:38:50;;;;;;;2.63;1.27;;;6.10;99.90;;;;;;4981949;28;20479;-65
2023/12/30 03:41:18;;;;;;;3.87;0.97;;;6.10;99.90;;;;;;4978415;28;20485;-65
2023/12/30 03:43:46;;;;;;;3.60;1.23;;;6.00;99.90;;;;;;4981045;28;20464;-65
2023/12/30 03:46:14;;;;;;;2.43;0.90;;;6.10;99.90;;;;;;4978736;28;20954;-65
2023/12/30 03:48:42;;;;;;;3.53;1.07;;;6.00;99.90;;;;;;4979792;28;20492;-65
2023/12/30 03:51:12;;;;;;;2.53;1.13;;;6.00;99.90;;;;;;4978970;28;20474;-65
2023/12/30 03:53:40;;;;;;;5.80;1.33;;;6.10;99.90;;;;;;4980812;28;20531;-65
2023/12/30 03:56:08;;;;;;;4.50;2.03;;;6.10;99.90;;;;;;4980386;28;20484;-65
2023/12/30 03:58:36;;;;;;;3.20;1.33;;;6.00;99.90;;;;;;4979267;28;20535;-65
2023/12/30 04:01:05;;;;;;;4.07;1.60;;;6.00;99.90;;;;;;4980595;28;20498;-65
2023/12/30 04:03:33;;;;;;;1.70;1.13;;;6.00;99.90;;;;;;4980945;28;20472;-65
2023/12/30 04:06:01;;;;;;;2.73;1.50;;;6.00;99.90;;;;;;4980417;28;20531;-65
2023/12/30 04:08:30;;;;;;;3.93;1.40;;;6.10;99.90;;;;;;4976886;28;20851;-65
2023/12/30 04:10:58;;;;;;;3.80;1.37;;;6.20;99.90;;;;;;4980465;28;20545;-65
2023/12/30 04:13:26;;;;;;;4.27;1.17;;;6.20;99.90;;;;;;4980583;28;20962;-64
2023/12/30 04:15:54;;;;;;;3.03;1.20;;;6.20;99.90;;;;;;4979408;28;20476;-65
2023/12/30 04:18:22;;;;;;;4.50;1.30;;;6.20;99.90;;;;;;4980083;28;20492;-65
2023/12/30 04:20:51;;;;;;;5.97;1.50;;;6.20;99.90;;;;;;4980529;28;20473;-65
2023/12/30 04:23:17;;;;;;;2.73;1.40;;;6.30;99.90;;;;;;4979567;28;20970;-65
2023/12/30 04:25:47;;;;;;;2.40;1.10;;;6.30;99.90;;;;;;4980136;28;20489;-65
2023/12/30 04:28:15;;;;;;;4.53;1.40;;;6.20;99.90;;;;;;4979868;28;20535;-65
2023/12/30 04:30:43;;;;;;;4.20;1.60;;;6.20;99.90;;;;;;4980494;28;20465;-65
2023/12/30 04:33:11;;;;;;;2.93;1.30;;;6.20;99.90;;;;;;4978916;28;20496;-65
2023/12/30 04:35:41;;;;;;;6.20;1.43;;;6.20;99.90;;;;;;4979775;28;20474;-65
2023/12/30 04:38:09;;;;;;;2.70;1.27;;;6.20;99.90;;;;;;4975361;28;20497;-65
2023/12/30 04:40:37;;;;;;;5.27;1.30;;;6.20;99.90;;;;;;4980550;28;20473;-65
2023/12/30 04:43:06;;;;;;;3.87;1.73;;;6.10;99.90;;;;;;4977433;28;20530;-65
2023/12/30 04:45:34;;;;;;;4.63;1.37;;;6.20;99.90;;;;;;4979625;28;20561;-65
2023/12/30 04:48:02;;;;;;;4.70;1.80;;;6.20;99.90;;;;;;4979511;28;20505;-65
2023/12/30 04:50:30;;;;;;;6.37;1.50;;;6.20;99.90;;;;;;4980376;28;20708;-65
2023/12/30 04:52:58;;;;;;;8.43;1.50;;;6.20;99.90;;;;;;4982404;28;20470;-65
2023/12/30 04:55:26;;;;;;;3.30;1.87;;;6.20;99.90;;;;;;4980426;28;20485;-65
2023/12/30 04:57:54;;;;;;;5.00;1.67;;;6.20;99.90;;;;;;4982857;28;20507;-65
2023/12/30 05:00:24;;;;;;;3.93;1.60;;;6.20;99.90;;;;;;4984661;28;20492;-65
2023/12/30 05:02:52;;;;;;;4.00;1.60;;;6.20;99.90;;;;;;4983764;28;20516;-65
2023/12/30 05:05:20;;;;;;;4.47;1.90;;;6.20;99.90;;;;;;4980328;28;20969;-65
2023/12/30 05:07:49;;;;;;;7.83;1.40;;;6.20;99.90;;;;;;4983856;28;20500;-64
2023/12/30 05:10:17;;;;;;;2.80;1.30;;;6.20;99.90;;;;;;4984443;28;20506;-65
2023/12/30 05:12:45;;;;;;;3.67;1.50;;;6.20;99.90;;;;;;4983080;28;21058;-65
2023/12/30 05:15:14;;;;;;;4.17;1.30;;;6.30;99.90;;;;;;4983894;28;20479;-65
2023/12/30 05:17:44;;;;;;;8.23;2.07;;;6.30;99.90;;;;;;4981767;28;20523;-65
2023/12/30 05:20:16;;;;;;;4.00;1.57;;;6.30;99.90;;;;;;4983110;28;20474;-65
2023/12/30 05:22:44;;;;;;;5.40;1.40;;;6.30;99.90;;;;;;4983886;28;20528;-65
2023/12/30 05:25:12;;;;;;;3.40;1.20;;;6.30;99.90;;;;;;4983095;28;20572;-66
2023/12/30 05:27:40;;;;;;;3.67;1.40;;;6.30;99.90;;;;;;4981859;28;20501;-65
2023/12/30 05:30:09;;;;;;;4.73;1.50;;;6.30;99.90;;;;;;4981954;28;20487;-65
2023/12/30 05:32:37;;;;;;;7.50;1.70;;;6.30;99.90;;;;;;4983564;28;20477;-65
2023/12/30 05:35:08;;;;;;;3.87;1.53;;;6.30;99.90;;;;;;4983440;28;20478;-65
2023/12/30 05:37:36;;;;;;;4.83;1.50;;;6.30;99.90;;;;;;4983149;28;20500;-65
2023/12/30 05:40:06;;;;;;;1.93;1.30;;;6.30;99.90;;;;;;4982520;28;20484;-65
2023/12/30 05:42:34;;;;;;;2.97;1.40;;;6.30;99.90;;;;;;4981430;28;20584;-65
2023/12/30 05:45:03;;;;;;;7.03;1.50;;;6.30;99.90;;;;;;4982056;28;20986;-65
2023/12/30 05:47:31;;;;;;;4.90;1.27;;;6.30;99.90;;;;;;4981772;28;20494;-65
2023/12/30 05:49:59;;;;;;;2.10;1.20;;;6.30;99.90;;;;;;4981732;28;21022;-65
2023/12/30 05:52:28;;;;;;;4.50;1.43;;;6.30;99.90;;;;;;4980591;28;20473;-65
2023/12/30 05:54:56;;;;;;;3.20;1.30;;;6.30;99.90;;;;;;4982933;28;20525;-65
2023/12/30 05:57:25;;;;;;;3.73;1.80;;;6.30;99.90;;;;;;4982418;28;20498;-65
2023/12/30 05:59:53;;;;;;;5.03;1.50;;;6.30;99.90;;;;;;4982222;28;20983;-65
2023/12/30 06:02:22;;;;;;;5.57;2.00;;;6.30;99.90;;;;;;4982640;28;21255;-65
2023/12/30 06:04:50;;;;;;;3.80;1.70;;;6.30;99.90;;;;;;4981217;28;21027;-65
2023/12/30 06:07:18;;;;;;;5.73;2.07;;;6.30;99.90;;;;;;4982285;28;20504;-65
2023/12/30 06:09:47;;;;;;;4.43;1.60;;;6.30;99.90;;;;;;4981937;28;20500;-65
2023/12/30 06:12:15;;;;;;;3.93;1.47;;;6.30;99.90;;;;;;4981857;28;20475;-65
2023/12/30 06:14:43;;;;;;;4.23;1.43;;;6.30;99.90;;;;;;4983120;28;20540;-65
2023/12/30 06:17:11;;;;;;;6.73;1.27;;;6.30;99.90;;;;;;4980498;28;20571;-65
2023/12/30 06:19:39;;;;;;;4.50;1.30;;;6.30;99.90;;;;;;4980213;28;20521;-65
2023/12/30 06:22:08;;;;;;;3.40;1.20;;;6.30;99.90;;;;;;4981788;28;20575;-65
2023/12/30 06:24:36;;;;;;;5.70;1.20;;;6.30;99.90;;;;;;4981678;28;20484;-65
2023/12/30 06:27:06;;;;;;;4.87;1.20;;;6.30;99.90;;;;;;4982775;28;20529;-65
2023/12/30 06:29:34;;;;;;;3.10;1.70;;;6.40;99.90;;;;;;4979855;28;20557;-64
2023/12/30 06:32:02;;;;;;;3.10;1.33;;;6.40;99.90;;;;;;4982992;28;20572;-65
2023/12/30 06:34:30;;;;;;;3.53;1.37;;;6.40;99.90;;;;;;4982040;28;20986;-65
2023/12/30 06:36:59;;;;;;;3.53;2.20;;;6.40;99.90;;;;;;4982555;28;20489;-64
2023/12/30 06:39:27;;;;;;;3.13;1.30;;;6.40;99.90;;;;;;4980764;28;20494;-64
2023/12/30 06:41:59;;;;;;;6.57;1.87;;;6.40;99.90;;;;;;4982610;28;20565;-65
2023/12/30 06:44:30;;;;;;;4.07;1.23;;;6.40;99.90;;;;;;4981721;28;20523;-65
2023/12/30 06:46:58;;;;;;;3.97;2.17;;;6.40;99.90;;;;;;4980963;28;20862;-65
2023/12/30 06:49:26;;;;;;;3.17;1.40;;;6.40;99.90;;;;;;4981180;28;20481;-64
2023/12/30 06:51:54;;;;;;;4.13;1.33;;;6.40;99.90;;;;;;4982526;28;20480;-64
2023/12/30 06:54:22;;;;;;;8.63;2.57;;;6.40;99.90;;;;;;4981276;28;20469;-65
2023/12/30 06:56:53;;;;;;;3.10;1.13;;;6.40;99.90;;;;;;4981656;28;20580;-65
2023/12/30 06:59:21;;;;;;;4.87;1.73;;;6.40;99.90;;;;;;4981113;28;20568;-65
2023/12/30 07:01:50;;;;;;;5.30;1.87;;;6.40;99.90;;;;;;4977740;28;21153;-65
2023/12/30 07:04:18;;;;;;;7.83;1.80;;;6.40;99.90;;;;;;4981030;28;20561;-65
2023/12/30 07:06:47;;;;;;;6.27;1.73;;;6.40;99.90;;;;;;4981409;28;20928;-65
2023/12/30 07:09:15;;;;;;;2.30;1.20;;;6.40;99.90;;;;;;4980710;28;20488;-65
2023/12/30 07:11:43;;;;;;;5.37;1.60;;;6.40;99.90;;;;;;4979650;28;21007;-65
2023/12/30 07:14:11;;;;;;;6.23;2.00;;;6.40;99.90;;;;;;4978788;28;20664;-65
2023/12/30 07:16:39;;;;;;;7.33;1.50;;;6.40;99.90;;;;;;4980632;28;20525;-65
2023/12/30 07:19:08;;;;;;;5.00;1.40;;;6.40;99.90;;;;;;4978732;28;20507;-65
2023/12/30 07:21:36;;;;;;;5.63;1.50;;;6.40;99.90;;;;;;4981594;28;20564;-63
2023/12/30 07:24:04;;;;;;;6.87;1.40;;;6.40;99.90;;;;;;4980661;28;20498;-63
2023/12/30 07:26:33;;;;;;;4.83;1.30;;;6.40;99.90;;;;;;4972367;28;21122;-63
2023/12/30 07:29:01;;;;;;;3.30;1.50;;;6.40;99.90;;;;;;4980226;28;20484;-63
2023/12/30 07:31:29;;;;;;;4.33;1.53;;;6.40;99.90;;;;;;4979314;28;20473;-63
2023/12/30 07:33:57;;;;;;;3.10;1.30;;;6.40;99.90;;;;;;4982724;28;20555;-63
2023/12/30 07:36:27;;;;;;;3.10;1.80;;;6.40;99.90;;;;;;4981519;28;20492;-63
2023/12/30 07:38:55;;;;;;;5.30;1.63;;;6.40;99.90;;;;;;4979733;28;21057;-63
2023/12/30 07:41:23;;;;;;;4.43;1.50;;;6.40;99.90;;;;;;4981671;28;20500;-63
2023/12/30 07:43:51;;;;;;;5.27;2.00;;;6.40;99.90;;;;;;4980661;28;20497;-63
2023/12/30 07:46:19;;;;;;;4.33;1.47;;;6.40;99.90;;;;;;4978913;28;20494;-63
2023/12/30 07:48:47;;;;;;;6.53;1.90;;;6.40;99.90;;;;;;4979332;28;20477;-64
2023/12/30 07:51:15;;;;;;;3.87;1.60;;;6.50;99.90;;;;;;4980477;28;20543;-64
2023/12/30 07:53:45;;;;;;;3.50;1.50;;;6.50;99.90;;;;;;4981267;28;20556;-63
2023/12/30 07:56:13;;;;;;;4.80;2.10;;;6.40;99.90;;;;;;4980199;28;20481;-64
2023/12/30 07:58:41;;;;;;;5.10;1.60;;;6.40;99.90;;;;;;4977306;28;20859;-63
2023/12/30 08:01:09;;;;;;;4.93;1.90;;;6.40;99.90;;;;;;4980949;28;20485;-64
2023/12/30 08:03:37;;;;;;;7.07;2.00;;;6.40;99.90;;;;;;4978762;28;21227;-63
2023/12/30 08:06:06;;;;;;;5.70;1.90;;;6.40;99.90;;;;;;4979893;28;20478;-63
2023/12/30 08:08:34;;;;;;;4.37;1.80;;;6.40;99.90;;;;;;4979956;28;20510;-63
2023/12/30 08:11:04;;;;;;;4.30;1.90;;;6.40;99.90;;;;;;4970089;28;20479;-63
2023/12/30 08:13:32;;;;;;;5.97;1.80;;;6.40;99.90;;;;;;4980860;28;20924;-65
2023/12/30 08:16:00;;;;;;;4.90;1.90;;;6.40;99.90;;;;;;4980514;28;20576;-63
2023/12/30 08:18:28;;;;;;;5.90;2.60;;;6.40;99.90;;;;;;4977483;28;20679;-63
2023/12/30 08:20:56;;;;;;;5.33;1.50;;;6.40;99.90;;;;;;4980676;28;20470;-63
2023/12/30 08:23:24;;;;;;;2.13;1.50;;;6.40;99.90;;;;;;4980421;28;21045;-62
2023/12/30 08:25:52;;;;;;;5.70;1.83;;;6.50;99.90;;;;;;4978121;28;20492;-65
2023/12/30 08:28:22;;;;;;;4.70;2.20;;;6.50;99.90;;;;;;4982487;28;20568;-65
2023/12/30 08:30:53;;;;;;;3.70;2.33;;;6.50;99.90;;;;;;4984354;28;20475;-63
2023/12/30 08:33:22;;;;;;;5.33;1.73;;;6.60;99.90;;;;;;4983364;28;21043;-63
2023/12/30 08:35:50;;;;;;;5.90;1.67;;;6.60;99.90;;;;;;4985239;28;20557;-63
2023/12/30 08:38:18;;;;;;;5.07;1.67;;;6.60;99.90;;;;;;4982404;28;20583;-65
2023/12/30 08:40:46;;;;;;;6.47;1.57;;;6.60;99.90;;;;;;4981534;28;20947;-64
2023/12/30 08:43:14;;;;;;;6.67;1.60;;;6.60;99.90;;;;;;4982945;28;20475;-64
2023/12/30 08:45:44;;;;;;;4.10;1.60;;;6.70;99.90;;;;;;4984103;28;20998;-65
2023/12/30 08:48:12;;;;;;;2.43;1.27;;;6.70;99.90;;;;;;4982000;28;20486;-65
2023/12/30 08:50:40;;;;;;;5.10;1.83;;;6.70;99.90;;;;;;4984043;28;20478;-65
2023/12/30 08:53:08;;;;;;;5.80;1.70;;;6.70;99.90;;;;;;4983543;28;20905;-65
2023/12/30 08:55:37;;;;;;;3.47;1.30;;;6.80;99.90;;;;;;4980749;28;20969;-64
2023/12/30 08:58:05;;;;;;;3.40;1.20;;;6.80;99.90;;;;;;4976923;28;20664;-65
2023/12/30 09:00:33;;;;;;;3.23;1.70;;;6.70;99.90;;;;;;4983923;28;20478;-64
2023/12/30 09:03:02;;;;;;;5.80;1.60;;;6.70;99.90;;;;;;4984823;28;20476;-65
2023/12/30 09:05:32;;;;;;;3.60;1.10;;;6.70;99.90;;;;;;4980627;28;20492;-65
2023/12/30 09:08:03;;;;;;;4.20;2.30;;;6.60;99.90;;;;;;4984269;28;20500;-65
2023/12/30 09:10:32;;;;;;;2.10;1.40;;;6.60;99.90;;;;;;4982780;28;20916;-65
2023/12/30 09:13:00;;;;;;;4.43;1.67;;;6.50;99.90;;;;;;4983590;28;20685;-65
2023/12/30 09:15:28;;;;;;;10.33;1.87;;;6.50;99.90;;;;;;4982180;28;20465;-65
2023/12/30 09:17:57;;;;;;;3.13;2.00;;;6.50;99.90;;;;;;4983371;28;20485;-63
2023/12/30 09:20:27;;;;;;;8.37;2.33;;;6.50;99.90;;;;;;4983099;28;20473;-64
2023/12/30 09:22:55;;;;;;;4.90;1.57;;;6.50;99.90;;;;;;4982358;28;20476;-64
2023/12/30 09:25:24;;;;;;;5.73;1.87;;;6.50;99.90;;;;;;4982034;28;20603;-63
2023/12/30 09:27:52;;;;;;;6.57;2.23;;;6.60;99.90;;;;;;4978032;28;20568;-63
2023/12/30 09:30:20;;;;;;;3.27;1.60;;;6.60;99.90;;;;;;4983221;28;20501;-63
2023/12/30 09:32:48;;;;;;;2.17;1.60;;;6.50;99.90;;;;;;4983871;28;20865;-63
2023/12/30 09:35:16;;;;;;;2.93;1.60;;;6.50;99.90;;;;;;4984401;28;20481;-63
2023/12/30 09:37:48;;;;;;;3.37;1.10;;;6.50;99.90;;;;;;4978277;28;20508;-63
2023/12/30 09:40:17;;;;;;;3.03;1.10;;;6.50;99.90;;;;;;4983703;28;21193;-63
2023/12/30 09:42:48;;;;;;;4.40;1.70;;;6.40;99.90;;;;;;4982957;28;20839;-63
2023/12/30 09:45:16;;;;;;;3.73;1.20;;;6.30;99.90;;;;;;4982756;28;20515;-63
2023/12/30 09:47:46;;;;;;;2.63;1.20;;;6.30;99.90;;;;;;4981026;28;20931;-65
2023/12/30 09:50:14;;;;;;;5.67;2.80;;;6.30;99.90;;;;;;4983680;28;20469;-63
2023/12/30 09:52:43;;;;;;;2.40;2.17;;;6.20;99.90;;;;;;4983259;28;20521;-63
2023/12/30 09:55:12;;;;;;;3.13;1.73;;;6.20;99.90;;;;;;4982527;28;20842;-63
2023/12/30 09:57:41;;;;;;;2.57;1.50;;;6.20;99.90;;;;;;4981841;28;21013;-63
2023/12/30 10:00:09;;;;;;;3.30;1.37;;;6.20;99.90;;;;;;4981957;28;20473;-65
2023/12/30 10:02:38;;;;;;;1.73;1.60;;;6.10;99.90;;;;;;4982386;28;20470;-65
2023/12/30 10:05:07;;;;;;;3.00;1.50;;;6.10;99.90;;;;;;4982104;28;20603;-62
2023/12/30 10:07:36;;;;;;;3.93;1.30;;;6.10;99.90;;;;;;4982894;28;20493;-65
2023/12/30 10:10:05;;;;;;;3.37;1.70;;;6.10;99.90;;;;;;4982785;28;20482;-65
2023/12/30 10:12:34;;;;;;;3.20;1.70;;;6.10;99.90;;;;;;4982762;28;20504;-65
2023/12/30 10:15:03;;;;;;;3.10;1.50;;;6.10;99.90;;;;;;4981061;28;20544;-65
2023/12/30 10:17:31;;;;;;;4.53;1.87;;;6.10;99.90;;;;;;4982078;28;20998;-62
2023/12/30 10:20:00;;;;;;;2.83;1.63;;;6.10;99.90;;;;;;4980770;28;20481;-65
2023/12/30 10:22:28;;;;;;;4.93;1.73;;;6.10;99.90;;;;;;4980858;28;20509;-65
2023/12/30 10:24:56;;;;;;;4.90;2.27;;;6.10;99.90;;;;;;4981286;28;20493;-62
2023/12/30 10:27:24;;;;;;;3.90;1.70;;;6.10;99.90;;;;;;4981444;28;20857;-65
2023/12/30 10:29:55;;;;;;;4.30;1.77;;;6.10;99.90;;;;;;4981226;28;20841;-63
2023/12/30 10:32:29;;;;;;;5.20;1.93;;;6.20;99.90;;;;;;4982538;28;20468;-64
2023/12/30 10:34:57;;;;;;;4.33;2.30;;;6.20;99.90;;;;;;4982077;28;20988;-63
2023/12/30 10:37:25;;;;;;;3.37;1.70;;;6.20;99.90;;;;;;4982176;28;20498;-66
2023/12/30 10:39:55;;;;;;;4.30;2.07;;;6.20;99.90;;;;;;4980659;28;20489;-63
2023/12/30 10:42:23;;;;;;;5.50;1.80;;;6.20;99.90;;;;;;4980680;28;20466;-63
2023/12/30 10:44:51;;;;;;;5.23;2.10;;;6.20;99.90;;;;;;4982741;28;20583;-65
2023/12/30 10:47:22;;;;;;;5.50;2.10;;;6.20;99.90;;;;;;4980907;28;20571;-65
2023/12/30 10:49:52;;;;;;;5.90;1.90;;;6.20;99.90;;;;;;4982174;28;20568;-65
2023/12/30 10:52:26;;;;;;;5.20;2.20;;;6.20;99.90;;;;;;4981813;28;20595;-65
2023/12/30 17:25:48;;;;;;;8.37;4.80;;;6.30;99.90;;;;;;4981110;28;20483;-65
2023/12/30 17:28:16;;;;;;;8.23;4.37;;;6.40;99.90;;;;;;4982681;28;20548;-63
2023/12/30 17:30:44;;;;;;;9.00;4.33;;;6.40;99.90;;;;;;4984531;28;20477;-63
2023/12/30 17:33:13;;;;;;;6.20;4.13;;;6.40;99.90;;;;;;4983586;28;20475;-62
2023/12/30 17:35:41;;;;;;;6.63;4.17;;;6.40;99.90;;;;;;4980920;28;20501;-62
2023/12/30 17:38:09;;;;;;;5.90;3.70;;;6.40;99.90;;;;;;4983908;28;20500;-62
2023/12/30 17:40:37;;;;;;;6.30;3.70;;;6.50;99.90;;;;;;4984018;28;20544;-63
2023/12/30 17:43:07;;;;;;;5.30;3.60;;;6.50;99.90;;;;;;4985316;28;20870;-63
2023/12/30 17:45:35;;;;;;;7.30;4.67;;;6.50;99.90;;;;;;4980822;28;20492;-63
2023/12/30 17:48:03;;;;;;;6.90;4.40;;;6.50;99.90;;;;;;4983689;28;20552;-65
2023/12/30 17:50:31;;;;;;;6.77;4.43;;;6.50;99.90;;;;;;4982316;28;20540;-63
2023/12/30 17:52:59;;;;;;;8.30;4.90;;;6.50;99.90;;;;;;4983408;28;20971;-64
2023/12/30 17:55:31;;;;;;;8.77;5.20;;;6.50;99.90;;;;;;4982239;28;20853;-65
2023/12/30 17:57:59;;;;;;;7.40;5.53;;;6.50;99.90;;;;;;4984133;28;20495;-63
2023/12/30 18:00:28;;;;;;;7.87;5.43;;;6.50;99.90;;;;;;4981399;28;20560;-63
2023/12/30 18:02:56;;;;;;;13.67;5.70;;;6.50;99.90;;;;;;4981410;28;20500;-63
2023/12/30 18:05:24;;;;;;;9.00;5.93;;;6.50;99.90;;;;;;4982762;28;20489;-65
2023/12/30 18:07:52;;;;;;;11.77;6.40;;;6.50;99.90;;;;;;4982390;28;20847;-63
2023/12/30 18:10:21;;;;;;;11.40;5.93;;;6.50;99.90;;;;;;4980021;28;20510;-65
2023/12/30 18:12:50;;;;;;;8.87;5.77;;;6.50;99.90;;;;;;4982066;28;20599;-65
2023/12/30 18:15:18;;;;;;;9.13;6.20;;;6.50;99.90;;;;;;4982494;28;20472;-63
2023/12/30 18:17:49;;;;;;;10.23;6.77;;;6.50;99.90;;;;;;4982160;28;20508;-63
2023/12/30 18:20:17;;;;;;;9.73;6.50;;;6.60;99.90;;;;;;4981175;28;20474;-63
2023/12/30 18:22:46;;;;;;;15.53;7.50;;;6.60;99.90;;;;;;4983432;28;20524;-63
2023/12/30 18:25:15;;;;;;;10.60;7.00;;;6.60;99.90;;;;;;4982039;28;20978;-63
2023/12/30 18:27:43;;;;;;;9.93;6.83;;;6.60;99.90;;;;;;4982727;28;21082;-63
2023/12/30 18:30:12;;;;;;;10.90;6.83;;;6.60;99.90;;;;;;4979698;28;20561;-63
2023/12/30 18:32:40;;;;;;;10.50;7.30;;;6.60;99.90;;;;;;4982645;28;21007;-62
2023/12/30 18:35:10;;;;;;;9.90;6.90;;;6.60;99.90;;;;;;4980672;28;20469;-62
2023/12/30 18:37:38;;;;;;;10.03;6.50;;;6.60;99.90;;;;;;4982624;28;20489;-63
2023/12/30 18:40:10;;;;;;;12.90;7.30;;;6.60;99.90;;;;;;4982704;28;21006;-62
2023/12/30 18:42:38;;;;;;;8.13;6.27;;;6.70;99.90;;;;;;4982187;28;20476;-63
2023/12/30 18:45:07;;;;;;;11.93;6.87;;;6.70;99.90;;;;;;4973465;28;20564;-62
2023/12/30 18:47:35;;;;;;;11.93;6.73;;;6.70;99.90;;;;;;4982891;28;20555;-63
2023/12/30 18:50:03;;;;;;;8.27;5.73;;;6.70;99.90;;;;;;4981738;28;20484;-63
2023/12/30 18:52:33;;;;;;;11.50;6.50;;;6.70;99.90;;;;;;4980537;28;20947;-62
2023/12/30 18:55:01;;;;;;;12.67;6.23;;;6.70;99.90;;;;;;4981235;28;20846;-63
2023/12/30 18:57:29;;;;;;;13.83;6.70;;;6.70;99.90;;;;;;4982198;28;20489;-63
2023/12/30 18:59:57;;;;;;;11.43;6.90;;;6.70;99.90;;;;;;4981296;28;21007;-63
2023/12/30 19:02:25;;;;;;;10.90;6.70;;;6.70;99.90;;;;;;4980240;28;20477;-63
2023/12/30 19:04:54;;;;;;;10.20;6.80;;;6.80;99.90;;;;;;4983127;28;20899;-62
2023/12/30 19:07:22;;;;;;;8.97;6.30;;;6.80;99.90;;;;;;4981659;28;20576;-63
2023/12/30 19:09:52;;;;;;;16.43;7.60;;;6.80;99.90;;;;;;4981279;28;20489;-62
2023/12/30 19:12:19;;;;;;;12.00;7.80;;;6.80;99.90;;;;;;4978998;28;20566;-63
2023/12/30 19:14:47;;;;;;;13.80;7.20;;;6.80;99.90;;;;;;4978698;28;21191;-63
2023/12/30 19:17:15;;;;;;;13.00;7.30;;;6.90;99.90;;;;;;4980234;28;20494;-63
2023/12/30 19:19:43;;;;;;;10.47;7.63;;;6.90;99.90;;;;;;4981666;28;20565;-62
2023/12/30 19:22:12;;;;;;;10.63;6.93;;;6.90;99.90;;;;;;4982037;28;20979;-63
2023/12/30 19:24:40;;;;;;;11.67;7.73;;;6.90;99.90;;;;;;4979662;28;20465;-63
2023/12/30 19:27:09;;;;;;;10.87;7.40;;;6.90;99.90;;;;;;4980379;28;21064;-63
2023/12/30 19:29:37;;;;;;;15.67;7.87;;;6.90;99.90;;;;;;4980620;28;20521;-63
2023/12/30 19:32:05;;;;;;;15.47;8.80;;;6.90;99.90;;;;;;4981988;28;20473;-63